Sioux Falls, SD (57104)

02:06 PM CDT del 03 Agosto 2015 (GMT -0500)
Joe Foss Field | | Change Station
CLOSE
Current Station
Stazione meteo personale
Location: Sioux Falls, SD
Altitudine: 1421 ft
Stazioni meteo nelle vicinanze

Alt. 1421 ft 43.57 °N, 96.74 °W | Updated 3 minutes ago

Scattered Clouds
Nubi sparse
80.6 °F
Sembra 80 °F
N
5.9
Vento Variabile Vento da ENE
Gusts 13.9 mph

Oggi
Massima -- | Minima -- °F
--% Possibilità di precip.
Ieri
Massima -- | Minima -- °F
Precip. -- in
6:18 AM 8:47 PM
Gobba a levante, 85% visible
Pressione 29.98 in
Visibilità 10.0 miglia
Nuvole Nubi sparse 5000 ft
Indice di calore 80 °F
Punto di rugiada 50 °F
Umidità 34%
Piovosità in
Spessore del manto nevoso Non disponibile.
Raggi UV 8 fuori da 12
Polline 6.30 fuori da 12
Qualità dell'aria Non disponibile.
Flu Activity Non disponibile.
METAR KFSD 031856Z VRB03KT 10SM SCT050 26/13 A2999 RMK AO2 SLP151 T02610133

More Conditions Fewer Conditions

Pressione 29.98 in
Visibilità 10.0 miglia
Nuvole Nubi sparse 5000 ft
Indice di calore 80 °F
Punto di rugiada 50 °F
Umidità 34%
Piovosità in
Spessore del manto nevoso Non disponibile.
Raggi UV 8 fuori da 12
Polline 6.30 fuori da 12
Qualità dell'aria Non disponibile.
Flu Activity Non disponibile.
METAR KFSD 031856Z VRB03KT 10SM SCT050 26/13 A2999 RMK AO2 SLP151 T02610133

More Conditions Fewer Conditions

10-Day Weather Forecast

×

Almanac

Astronomia

Aug. 03, 2015 Alba Tramonto
Ora attuale
Crepuscolo civile
Crepuscolo nautico
Crepuscolo astronomico
Luna
Estensione della luce visibile
Lunghezza del giorno
Tomorrow will be .
, % of the Moon is Illuminated

Gli estremi di oggi

State Highs State Lows

Community

WunderPhotos

Upload Photos

1,843,707 foto caricate!

WunderBlogs® & News

Nearby

Qualità dell'aria

  Qualità dell'aria Indice AQ Inquinante
Not available.

Profondità neve

Stazione Profondità Altitudine

Attività sismica

Città  Distanza Mag. Data & Ora
Minimo Magnitudo Mostrato è 2.5.

Temperature delle acque costiere

Località Temperatura

Stations

Stazioni meteo nelle vicinanze

Ubicazione della stazione Temp. Raffreddamento del vento Punto di rugiada Umidità Vento Precip. Alt. Aggiornato Tipo